sensor_id;sensor_type;location;lat;lon;timestamp;P1;durP1;ratioP1;P2;durP2;ratioP2
52574;SDS011;38468;48.114;-1.684;2022-12-10T00:01:08;40.42;;;24.58;;
52574;SDS011;38468;48.114;-1.684;2022-12-10T00:03:16;41.53;;;24.80;;
52574;SDS011;38468;48.114;-1.684;2022-12-10T00:05:17;43.00;;;25.65;;
52574;SDS011;38468;48.114;-1.684;2022-12-10T00:07:18;43.25;;;25.95;;
52574;SDS011;38468;48.114;-1.684;2022-12-10T00:09:19;37.08;;;23.80;;
52574;SDS011;38468;48.114;-1.684;2022-12-10T00:11:21;40.92;;;24.95;;
52574;SDS011;38468;48.114;-1.684;2022-12-10T00:13:22;36.20;;;24.98;;
52574;SDS011;38468;48.114;-1.684;2022-12-10T00:15:23;44.30;;;30.25;;
52574;SDS011;38468;48.114;-1.684;2022-12-10T00:17:23;53.35;;;30.35;;
52574;SDS011;38468;48.114;-1.684;2022-12-10T00:19:24;46.70;;;32.45;;
52574;SDS011;38468;48.114;-1.684;2022-12-10T00:21:26;47.70;;;29.88;;
52574;SDS011;38468;48.114;-1.684;2022-12-10T00:23:28;49.50;;;31.58;;
52574;SDS011;38468;48.114;-1.684;2022-12-10T00:27:31;45.88;;;28.45;;
52574;SDS011;38468;48.114;-1.684;2022-12-10T00:29:32;44.50;;;29.10;;
52574;SDS011;38468;48.114;-1.684;2022-12-10T00:31:34;43.75;;;29.38;;
52574;SDS011;38468;48.114;-1.684;2022-12-10T00:33:37;51.67;;;29.95;;
52574;SDS011;38468;48.114;-1.684;2022-12-10T00:35:38;38.53;;;27.25;;
52574;SDS011;38468;48.114;-1.684;2022-12-10T00:37:39;41.08;;;27.15;;
52574;SDS011;38468;48.114;-1.684;2022-12-10T00:39:40;46.10;;;28.67;;
52574;SDS011;38468;48.114;-1.684;2022-12-10T00:41:47;41.40;;;29.23;;
52574;SDS011;38468;48.114;-1.684;2022-12-10T00:44:02;47.15;;;28.77;;
52574;SDS011;38468;48.114;-1.684;2022-12-10T00:46:03;41.40;;;27.63;;
52574;SDS011;38468;48.114;-1.684;2022-12-10T00:48:07;41.20;;;27.38;;
52574;SDS011;38468;48.114;-1.684;2022-12-10T00:50:10;42.65;;;27.45;;
52574;SDS011;38468;48.114;-1.684;2022-12-10T00:52:15;39.80;;;25.25;;
52574;SDS011;38468;48.114;-1.684;2022-12-10T00:54:16;42.22;;;28.27;;
52574;SDS011;38468;48.114;-1.684;2022-12-10T00:56:18;45.63;;;28.15;;
52574;SDS011;38468;48.114;-1.684;2022-12-10T00:58:26;45.35;;;28.98;;
52574;SDS011;38468;48.114;-1.684;2022-12-10T01:00:31;45.33;;;29.50;;
52574;SDS011;38468;48.114;-1.684;2022-12-10T01:02:31;51.08;;;30.30;;
52574;SDS011;38468;48.114;-1.684;2022-12-10T01:04:33;46.22;;;28.90;;
52574;SDS011;38468;48.114;-1.684;2022-12-10T01:06:41;43.83;;;28.67;;
52574;SDS011;38468;48.114;-1.684;2022-12-10T01:08:49;43.88;;;29.58;;
52574;SDS011;38468;48.114;-1.684;2022-12-10T01:10:58;48.20;;;30.52;;
52574;SDS011;38468;48.114;-1.684;2022-12-10T01:13:00;44.70;;;27.17;;
52574;SDS011;38468;48.114;-1.684;2022-12-10T01:15:10;46.53;;;28.35;;
52574;SDS011;38468;48.114;-1.684;2022-12-10T01:17:21;43.55;;;28.83;;
52574;SDS011;38468;48.114;-1.684;2022-12-10T01:19:27;42.90;;;29.27;;
52574;SDS011;38468;48.114;-1.684;2022-12-10T01:21:35;45.75;;;29.80;;
52574;SDS011;38468;48.114;-1.684;2022-12-10T01:23:42;42.55;;;29.08;;
52574;SDS011;38468;48.114;-1.684;2022-12-10T01:25:44;40.58;;;26.60;;
52574;SDS011;38468;48.114;-1.684;2022-12-10T01:27:46;48.13;;;29.70;;
52574;SDS011;38468;48.114;-1.684;2022-12-10T01:29:48;46.28;;;28.98;;
52574;SDS011;38468;48.114;-1.684;2022-12-10T01:31:52;45.42;;;29.88;;
52574;SDS011;38468;48.114;-1.684;2022-12-10T01:33:55;46.60;;;27.92;;
52574;SDS011;38468;48.114;-1.684;2022-12-10T01:36:04;44.55;;;29.25;;
52574;SDS011;38468;48.114;-1.684;2022-12-10T01:38:07;41.13;;;27.20;;
52574;SDS011;38468;48.114;-1.684;2022-12-10T01:40:08;39.78;;;27.98;;
52574;SDS011;38468;48.114;-1.684;2022-12-10T01:42:12;39.70;;;27.60;;
52574;SDS011;38468;48.114;-1.684;2022-12-10T01:46:18;55.53;;;31.17;;
52574;SDS011;38468;48.114;-1.684;2022-12-10T01:48:20;47.70;;;29.52;;
52574;SDS011;38468;48.114;-1.684;2022-12-10T01:50:24;47.92;;;31.05;;
52574;SDS011;38468;48.114;-1.684;2022-12-10T01:52:31;46.88;;;30.02;;
52574;SDS011;38468;48.114;-1.684;2022-12-10T01:54:34;48.80;;;29.80;;
52574;SDS011;38468;48.114;-1.684;2022-12-10T01:56:43;47.40;;;32.30;;
52574;SDS011;38468;48.114;-1.684;2022-12-10T01:58:51;49.83;;;30.75;;
52574;SDS011;38468;48.114;-1.684;2022-12-10T02:01:14;50.17;;;32.75;;
52574;SDS011;38468;48.114;-1.684;2022-12-10T02:03:21;49.28;;;31.85;;
52574;SDS011;38468;48.114;-1.684;2022-12-10T02:05:47;50.47;;;32.38;;
52574;SDS011;38468;48.114;-1.684;2022-12-10T02:08:19;45.17;;;29.17;;
52574;SDS011;38468;48.114;-1.684;2022-12-10T02:13:34;45.72;;;28.58;;
52574;SDS011;38468;48.114;-1.684;2022-12-10T02:15:59;44.97;;;28.13;;
52574;SDS011;38468;48.114;-1.684;2022-12-10T02:22:20;48.45;;;32.20;;
52574;SDS011;38468;48.114;-1.684;2022-12-10T02:24:28;47.40;;;30.75;;
52574;SDS011;38468;48.114;-1.684;2022-12-10T02:30:50;46.08;;;31.90;;
52574;SDS011;38468;48.114;-1.684;2022-12-10T02:32:53;49.20;;;31.00;;
52574;SDS011;38468;48.114;-1.684;2022-12-10T02:34:56;45.05;;;30.13;;
52574;SDS011;38468;48.114;-1.684;2022-12-10T02:37:01;47.03;;;29.83;;
52574;SDS011;38468;48.114;-1.684;2022-12-10T02:39:09;50.42;;;30.02;;
52574;SDS011;38468;48.114;-1.684;2022-12-10T02:41:20;48.55;;;28.48;;
52574;SDS011;38468;48.114;-1.684;2022-12-10T02:43:25;46.80;;;30.63;;
52574;SDS011;38468;48.114;-1.684;2022-12-10T02:45:28;41.65;;;29.10;;
52574;SDS011;38468;48.114;-1.684;2022-12-10T02:49:32;45.13;;;29.95;;
52574;SDS011;38468;48.114;-1.684;2022-12-10T02:51:34;43.95;;;28.15;;
52574;SDS011;38468;48.114;-1.684;2022-12-10T02:53:40;41.25;;;26.95;;
52574;SDS011;38468;48.114;-1.684;2022-12-10T03:00:19;38.30;;;25.67;;
52574;SDS011;38468;48.114;-1.684;2022-12-10T03:02:27;37.00;;;24.98;;
52574;SDS011;38468;48.114;-1.684;2022-12-10T03:07:09;41.35;;;25.08;;
52574;SDS011;38468;48.114;-1.684;2022-12-10T03:09:17;40.38;;;25.67;;
52574;SDS011;38468;48.114;-1.684;2022-12-10T03:11:29;37.97;;;24.27;;
52574;SDS011;38468;48.114;-1.684;2022-12-10T03:13:35;42.47;;;26.35;;
52574;SDS011;38468;48.114;-1.684;2022-12-10T03:15:40;37.55;;;24.55;;
52574;SDS011;38468;48.114;-1.684;2022-12-10T03:17:42;38.97;;;25.48;;
52574;SDS011;38468;48.114;-1.684;2022-12-10T03:19:46;37.47;;;23.67;;
52574;SDS011;38468;48.114;-1.684;2022-12-10T03:21:49;40.10;;;24.80;;
52574;SDS011;38468;48.114;-1.684;2022-12-10T03:23:51;37.65;;;24.80;;
52574;SDS011;38468;48.114;-1.684;2022-12-10T03:25:52;39.83;;;25.48;;
52574;SDS011;38468;48.114;-1.684;2022-12-10T03:27:54;35.38;;;24.40;;
52574;SDS011;38468;48.114;-1.684;2022-12-10T03:31:57;32.67;;;21.58;;
52574;SDS011;38468;48.114;-1.684;2022-12-10T03:33:59;36.10;;;22.80;;
52574;SDS011;38468;48.114;-1.684;2022-12-10T03:36:00;42.67;;;24.58;;
52574;SDS011;38468;48.114;-1.684;2022-12-10T03:38:01;35.33;;;24.08;;
52574;SDS011;38468;48.114;-1.684;2022-12-10T03:40:03;41.30;;;24.13;;
52574;SDS011;38468;48.114;-1.684;2022-12-10T03:44:06;36.45;;;22.38;;
52574;SDS011;38468;48.114;-1.684;2022-12-10T03:46:06;35.33;;;23.35;;
52574;SDS011;38468;48.114;-1.684;2022-12-10T03:48:07;35.60;;;23.33;;
52574;SDS011;38468;48.114;-1.684;2022-12-10T03:50:08;35.42;;;22.40;;
52574;SDS011;38468;48.114;-1.684;2022-12-10T03:52:09;33.70;;;21.25;;
52574;SDS011;38468;48.114;-1.684;2022-12-10T03:54:11;34.13;;;22.00;;
52574;SDS011;38468;48.114;-1.684;2022-12-10T03:56:11;32.08;;;21.15;;
52574;SDS011;38468;48.114;-1.684;2022-12-10T03:58:12;32.00;;;21.55;;
52574;SDS011;38468;48.114;-1.684;2022-12-10T04:00:13;36.92;;;23.10;;
52574;SDS011;38468;48.114;-1.684;2022-12-10T04:02:13;30.90;;;19.90;;
52574;SDS011;38468;48.114;-1.684;2022-12-10T04:04:14;34.65;;;20.73;;
52574;SDS011;38468;48.114;-1.684;2022-12-10T04:06:16;27.65;;;19.35;;
52574;SDS011;38468;48.114;-1.684;2022-12-10T04:08:18;29.67;;;21.23;;
52574;SDS011;38468;48.114;-1.684;2022-12-10T04:10:19;27.73;;;20.17;;
52574;SDS011;38468;48.114;-1.684;2022-12-10T04:12:19;30.98;;;19.88;;
52574;SDS011;38468;48.114;-1.684;2022-12-10T04:14:20;33.88;;;20.55;;
52574;SDS011;38468;48.114;-1.684;2022-12-10T04:16:39;29.23;;;19.60;;
52574;SDS011;38468;48.114;-1.684;2022-12-10T04:18:40;31.95;;;19.88;;
52574;SDS011;38468;48.114;-1.684;2022-12-10T04:20:41;29.75;;;19.98;;
52574;SDS011;38468;48.114;-1.684;2022-12-10T04:23:01;31.77;;;20.98;;
52574;SDS011;38468;48.114;-1.684;2022-12-10T04:25:20;31.25;;;19.42;;
52574;SDS011;38468;48.114;-1.684;2022-12-10T04:27:39;29.77;;;19.58;;
52574;SDS011;38468;48.114;-1.684;2022-12-10T04:29:40;31.80;;;19.75;;
52574;SDS011;38468;48.114;-1.684;2022-12-10T04:31:41;33.05;;;19.80;;
52574;SDS011;38468;48.114;-1.684;2022-12-10T04:33:41;28.90;;;19.27;;
52574;SDS011;38468;48.114;-1.684;2022-12-10T04:35:42;28.85;;;19.48;;
52574;SDS011;38468;48.114;-1.684;2022-12-10T04:37:42;29.13;;;19.15;;
52574;SDS011;38468;48.114;-1.684;2022-12-10T04:39:43;28.60;;;19.67;;
52574;SDS011;38468;48.114;-1.684;2022-12-10T04:41:45;30.40;;;19.40;;
52574;SDS011;38468;48.114;-1.684;2022-12-10T04:43:47;25.10;;;18.13;;
52574;SDS011;38468;48.114;-1.684;2022-12-10T04:45:47;28.00;;;20.05;;
52574;SDS011;38468;48.114;-1.684;2022-12-10T04:47:48;28.85;;;19.17;;
52574;SDS011;38468;48.114;-1.684;2022-12-10T04:49:49;32.55;;;19.73;;
52574;SDS011;38468;48.114;-1.684;2022-12-10T04:51:50;30.38;;;19.73;;
52574;SDS011;38468;48.114;-1.684;2022-12-10T04:53:51;29.98;;;19.17;;
52574;SDS011;38468;48.114;-1.684;2022-12-10T04:55:51;29.63;;;19.52;;
52574;SDS011;38468;48.114;-1.684;2022-12-10T04:57:52;29.50;;;20.33;;
52574;SDS011;38468;48.114;-1.684;2022-12-10T04:59:53;29.40;;;20.50;;
52574;SDS011;38468;48.114;-1.684;2022-12-10T05:01:54;30.67;;;20.00;;
52574;SDS011;38468;48.114;-1.684;2022-12-10T05:03:54;32.80;;;20.88;;
52574;SDS011;38468;48.114;-1.684;2022-12-10T05:06:02;29.75;;;19.15;;
52574;SDS011;38468;48.114;-1.684;2022-12-10T05:08:10;26.75;;;17.67;;
52574;SDS011;38468;48.114;-1.684;2022-12-10T05:10:11;28.40;;;19.38;;
52574;SDS011;38468;48.114;-1.684;2022-12-10T05:12:12;32.33;;;20.00;;
52574;SDS011;38468;48.114;-1.684;2022-12-10T05:14:14;34.58;;;21.73;;
52574;SDS011;38468;48.114;-1.684;2022-12-10T05:16:16;31.88;;;22.05;;
52574;SDS011;38468;48.114;-1.684;2022-12-10T05:18:18;27.33;;;19.30;;
52574;SDS011;38468;48.114;-1.684;2022-12-10T05:20:19;32.58;;;19.15;;
52574;SDS011;38468;48.114;-1.684;2022-12-10T05:22:19;29.63;;;19.67;;
52574;SDS011;38468;48.114;-1.684;2022-12-10T05:24:39;27.55;;;18.40;;
52574;SDS011;38468;48.114;-1.684;2022-12-10T05:26:40;26.92;;;18.65;;
52574;SDS011;38468;48.114;-1.684;2022-12-10T05:28:41;33.00;;;19.52;;
52574;SDS011;38468;48.114;-1.684;2022-12-10T05:30:44;29.70;;;19.27;;
52574;SDS011;38468;48.114;-1.684;2022-12-10T05:32:45;27.13;;;17.88;;
52574;SDS011;38468;48.114;-1.684;2022-12-10T05:34:45;29.33;;;18.35;;
52574;SDS011;38468;48.114;-1.684;2022-12-10T05:36:46;25.25;;;17.27;;
52574;SDS011;38468;48.114;-1.684;2022-12-10T05:38:47;34.13;;;19.80;;
52574;SDS011;38468;48.114;-1.684;2022-12-10T05:40:48;33.72;;;20.60;;
52574;SDS011;38468;48.114;-1.684;2022-12-10T05:42:49;27.20;;;18.63;;
52574;SDS011;38468;48.114;-1.684;2022-12-10T05:44:49;26.92;;;18.65;;
52574;SDS011;38468;48.114;-1.684;2022-12-10T05:46:51;31.70;;;18.92;;
52574;SDS011;38468;48.114;-1.684;2022-12-10T05:48:57;27.55;;;18.05;;
52574;SDS011;38468;48.114;-1.684;2022-12-10T05:51:04;27.65;;;19.10;;
52574;SDS011;38468;48.114;-1.684;2022-12-10T05:53:09;32.45;;;21.98;;
52574;SDS011;38468;48.114;-1.684;2022-12-10T05:55:13;30.90;;;20.10;;
52574;SDS011;38468;48.114;-1.684;2022-12-10T05:57:14;30.52;;;19.92;;
52574;SDS011;38468;48.114;-1.684;2022-12-10T05:59:14;28.35;;;21.00;;
52574;SDS011;38468;48.114;-1.684;2022-12-10T06:01:19;26.67;;;18.17;;
52574;SDS011;38468;48.114;-1.684;2022-12-10T06:03:21;33.50;;;20.50;;
52574;SDS011;38468;48.114;-1.684;2022-12-10T06:05:22;33.35;;;21.90;;
52574;SDS011;38468;48.114;-1.684;2022-12-10T06:07:22;29.35;;;20.75;;
52574;SDS011;38468;48.114;-1.684;2022-12-10T06:09:23;30.25;;;18.80;;
52574;SDS011;38468;48.114;-1.684;2022-12-10T06:11:24;30.58;;;19.92;;
52574;SDS011;38468;48.114;-1.684;2022-12-10T06:13:26;26.70;;;19.48;;
52574;SDS011;38468;48.114;-1.684;2022-12-10T06:15:27;26.30;;;19.25;;
52574;SDS011;38468;48.114;-1.684;2022-12-10T06:17:27;31.48;;;18.33;;
52574;SDS011;38468;48.114;-1.684;2022-12-10T06:19:28;30.17;;;19.77;;
52574;SDS011;38468;48.114;-1.684;2022-12-10T06:21:29;24.35;;;17.65;;
52574;SDS011;38468;48.114;-1.684;2022-12-10T06:23:29;25.48;;;18.77;;
52574;SDS011;38468;48.114;-1.684;2022-12-10T06:25:30;25.75;;;17.80;;
52574;SDS011;38468;48.114;-1.684;2022-12-10T06:27:31;26.42;;;18.92;;
52574;SDS011;38468;48.114;-1.684;2022-12-10T06:29:32;27.17;;;19.83;;
52574;SDS011;38468;48.114;-1.684;2022-12-10T06:31:32;29.60;;;17.73;;
52574;SDS011;38468;48.114;-1.684;2022-12-10T06:33:33;31.38;;;19.75;;
52574;SDS011;38468;48.114;-1.684;2022-12-10T06:35:34;30.63;;;19.40;;
52574;SDS011;38468;48.114;-1.684;2022-12-10T06:39:37;26.92;;;19.17;;
52574;SDS011;38468;48.114;-1.684;2022-12-10T06:41:38;27.60;;;20.60;;
52574;SDS011;38468;48.114;-1.684;2022-12-10T06:43:43;28.40;;;19.67;;
52574;SDS011;38468;48.114;-1.684;2022-12-10T06:45:44;28.38;;;19.63;;
52574;SDS011;38468;48.114;-1.684;2022-12-10T06:47:44;26.55;;;18.23;;
52574;SDS011;38468;48.114;-1.684;2022-12-10T06:49:45;27.75;;;19.00;;
52574;SDS011;38468;48.114;-1.684;2022-12-10T06:51:47;28.40;;;19.58;;
52574;SDS011;38468;48.114;-1.684;2022-12-10T06:53:47;27.70;;;18.80;;
52574;SDS011;38468;48.114;-1.684;2022-12-10T06:55:48;33.60;;;20.90;;
52574;SDS011;38468;48.114;-1.684;2022-12-10T06:57:52;31.83;;;18.70;;
52574;SDS011;38468;48.114;-1.684;2022-12-10T06:59:53;27.13;;;19.25;;
52574;SDS011;38468;48.114;-1.684;2022-12-10T07:01:54;27.10;;;19.75;;
52574;SDS011;38468;48.114;-1.684;2022-12-10T07:03:55;26.67;;;18.63;;
52574;SDS011;38468;48.114;-1.684;2022-12-10T07:05:57;28.45;;;19.33;;
52574;SDS011;38468;48.114;-1.684;2022-12-10T07:07:59;34.50;;;19.65;;
52574;SDS011;38468;48.114;-1.684;2022-12-10T07:09:59;27.63;;;19.02;;
52574;SDS011;38468;48.114;-1.684;2022-12-10T07:12:00;28.75;;;19.38;;
52574;SDS011;38468;48.114;-1.684;2022-12-10T07:14:01;27.15;;;19.00;;
52574;SDS011;38468;48.114;-1.684;2022-12-10T07:16:02;27.05;;;18.38;;
52574;SDS011;38468;48.114;-1.684;2022-12-10T07:18:03;28.67;;;18.50;;
52574;SDS011;38468;48.114;-1.684;2022-12-10T07:20:04;33.72;;;19.98;;
52574;SDS011;38468;48.114;-1.684;2022-12-10T07:22:05;25.85;;;18.80;;
52574;SDS011;38468;48.114;-1.684;2022-12-10T07:24:07;27.55;;;18.67;;
52574;SDS011;38468;48.114;-1.684;2022-12-10T07:26:13;24.73;;;19.83;;
52574;SDS011;38468;48.114;-1.684;2022-12-10T07:28:14;28.30;;;19.02;;
52574;SDS011;38468;48.114;-1.684;2022-12-10T07:30:14;26.98;;;19.42;;
52574;SDS011;38468;48.114;-1.684;2022-12-10T07:32:15;28.85;;;19.98;;
52574;SDS011;38468;48.114;-1.684;2022-12-10T07:34:16;33.20;;;20.95;;
52574;SDS011;38468;48.114;-1.684;2022-12-10T07:36:17;29.25;;;20.60;;
52574;SDS011;38468;48.114;-1.684;2022-12-10T07:38:18;28.15;;;19.75;;
52574;SDS011;38468;48.114;-1.684;2022-12-10T07:40:19;32.10;;;20.20;;
52574;SDS011;38468;48.114;-1.684;2022-12-10T07:42:19;29.02;;;20.40;;
52574;SDS011;38468;48.114;-1.684;2022-12-10T07:44:21;24.55;;;18.73;;
52574;SDS011;38468;48.114;-1.684;2022-12-10T07:46:26;25.88;;;18.98;;
52574;SDS011;38468;48.114;-1.684;2022-12-10T07:48:28;33.47;;;23.27;;
52574;SDS011;38468;48.114;-1.684;2022-12-10T07:50:28;29.33;;;20.92;;
52574;SDS011;38468;48.114;-1.684;2022-12-10T07:52:29;25.48;;;18.88;;
52574;SDS011;38468;48.114;-1.684;2022-12-10T07:54:30;30.10;;;19.50;;
52574;SDS011;38468;48.114;-1.684;2022-12-10T07:56:30;28.05;;;20.08;;
52574;SDS011;38468;48.114;-1.684;2022-12-10T07:58:31;28.00;;;18.45;;
52574;SDS011;38468;48.114;-1.684;2022-12-10T08:00:32;25.05;;;19.48;;
52574;SDS011;38468;48.114;-1.684;2022-12-10T08:02:33;31.48;;;20.23;;
52574;SDS011;38468;48.114;-1.684;2022-12-10T08:04:35;27.73;;;19.45;;
52574;SDS011;38468;48.114;-1.684;2022-12-10T08:08:38;29.02;;;17.27;;
52574;SDS011;38468;48.114;-1.684;2022-12-10T08:10:39;29.67;;;19.38;;
52574;SDS011;38468;48.114;-1.684;2022-12-10T08:12:40;27.23;;;18.63;;
52574;SDS011;38468;48.114;-1.684;2022-12-10T08:14:40;34.53;;;18.63;;
52574;SDS011;38468;48.114;-1.684;2022-12-10T08:16:41;23.52;;;17.75;;
52574;SDS011;38468;48.114;-1.684;2022-12-10T08:18:42;30.02;;;20.05;;
52574;SDS011;38468;48.114;-1.684;2022-12-10T08:20:43;24.02;;;17.48;;
52574;SDS011;38468;48.114;-1.684;2022-12-10T08:22:44;23.77;;;16.65;;
52574;SDS011;38468;48.114;-1.684;2022-12-10T08:24:44;22.88;;;17.17;;
52574;SDS011;38468;48.114;-1.684;2022-12-10T08:26:45;27.85;;;20.08;;
52574;SDS011;38468;48.114;-1.684;2022-12-10T08:28:47;60.55;;;38.72;;
52574;SDS011;38468;48.114;-1.684;2022-12-10T08:30:49;42.35;;;27.48;;
52574;SDS011;38468;48.114;-1.684;2022-12-10T08:32:49;34.45;;;22.40;;
52574;SDS011;38468;48.114;-1.684;2022-12-10T08:34:50;23.98;;;17.80;;
52574;SDS011;38468;48.114;-1.684;2022-12-10T08:36:51;22.63;;;17.05;;
52574;SDS011;38468;48.114;-1.684;2022-12-10T08:38:51;24.60;;;18.35;;
52574;SDS011;38468;48.114;-1.684;2022-12-10T08:40:52;23.50;;;17.13;;
52574;SDS011;38468;48.114;-1.684;2022-12-10T08:42:52;28.85;;;18.35;;
52574;SDS011;38468;48.114;-1.684;2022-12-10T08:44:53;27.48;;;19.33;;
52574;SDS011;38468;48.114;-1.684;2022-12-10T08:46:54;26.02;;;18.48;;
52574;SDS011;38468;48.114;-1.684;2022-12-10T08:48:55;25.70;;;18.38;;
52574;SDS011;38468;48.114;-1.684;2022-12-10T08:50:55;24.75;;;17.92;;
52574;SDS011;38468;48.114;-1.684;2022-12-10T08:52:56;24.85;;;18.67;;
52574;SDS011;38468;48.114;-1.684;2022-12-10T08:54:57;26.33;;;19.15;;
52574;SDS011;38468;48.114;-1.684;2022-12-10T08:56:57;29.20;;;20.52;;
52574;SDS011;38468;48.114;-1.684;2022-12-10T08:58:58;33.80;;;21.77;;
52574;SDS011;38468;48.114;-1.684;2022-12-10T09:00:59;35.67;;;24.05;;
52574;SDS011;38468;48.114;-1.684;2022-12-10T09:03:05;30.85;;;21.33;;
52574;SDS011;38468;48.114;-1.684;2022-12-10T09:05:06;35.65;;;23.63;;
52574;SDS011;38468;48.114;-1.684;2022-12-10T09:07:07;33.38;;;23.52;;
52574;SDS011;38468;48.114;-1.684;2022-12-10T09:09:08;30.80;;;20.27;;
52574;SDS011;38468;48.114;-1.684;2022-12-10T09:11:10;28.98;;;21.23;;
52574;SDS011;38468;48.114;-1.684;2022-12-10T09:13:16;30.90;;;21.80;;
52574;SDS011;38468;48.114;-1.684;2022-12-10T09:15:16;28.70;;;19.27;;
52574;SDS011;38468;48.114;-1.684;2022-12-10T09:17:17;28.38;;;21.10;;
52574;SDS011;38468;48.114;-1.684;2022-12-10T09:19:18;29.85;;;21.42;;
52574;SDS011;38468;48.114;-1.684;2022-12-10T09:21:18;24.90;;;19.50;;
52574;SDS011;38468;48.114;-1.684;2022-12-10T09:23:19;28.73;;;19.63;;
52574;SDS011;38468;48.114;-1.684;2022-12-10T09:25:20;30.50;;;22.17;;
52574;SDS011;38468;48.114;-1.684;2022-12-10T09:27:21;25.07;;;19.27;;
52574;SDS011;38468;48.114;-1.684;2022-12-10T09:29:23;27.35;;;19.90;;
52574;SDS011;38468;48.114;-1.684;2022-12-10T09:31:23;26.85;;;20.35;;
52574;SDS011;38468;48.114;-1.684;2022-12-10T09:33:27;23.95;;;18.33;;
52574;SDS011;38468;48.114;-1.684;2022-12-10T09:35:34;26.88;;;18.80;;
52574;SDS011;38468;48.114;-1.684;2022-12-10T09:37:40;26.92;;;18.40;;
52574;SDS011;38468;48.114;-1.684;2022-12-10T09:39:41;26.73;;;18.25;;
52574;SDS011;38468;48.114;-1.684;2022-12-10T09:46:24;28.55;;;20.00;;
52574;SDS011;38468;48.114;-1.684;2022-12-10T09:51:10;21.35;;;16.42;;
52574;SDS011;38468;48.114;-1.684;2022-12-10T09:53:18;23.90;;;14.45;;
52574;SDS011;38468;48.114;-1.684;2022-12-10T09:55:27;19.52;;;15.43;;
52574;SDS011;38468;48.114;-1.684;2022-12-10T09:57:39;18.95;;;14.65;;
52574;SDS011;38468;48.114;-1.684;2022-12-10T09:59:44;20.17;;;15.70;;
52574;SDS011;38468;48.114;-1.684;2022-12-10T10:01:56;19.05;;;15.75;;
52574;SDS011;38468;48.114;-1.684;2022-12-10T10:04:10;21.02;;;15.52;;
52574;SDS011;38468;48.114;-1.684;2022-12-10T10:06:14;21.90;;;15.48;;
52574;SDS011;38468;48.114;-1.684;2022-12-10T10:10:29;15.90;;;13.77;;
52574;SDS011;38468;48.114;-1.684;2022-12-10T10:12:34;20.58;;;15.55;;
52574;SDS011;38468;48.114;-1.684;2022-12-10T10:14:37;18.17;;;15.35;;
52574;SDS011;38468;48.114;-1.684;2022-12-10T10:16:47;15.55;;;13.85;;
52574;SDS011;38468;48.114;-1.684;2022-12-10T10:18:56;16.10;;;14.05;;
52574;SDS011;38468;48.114;-1.684;2022-12-10T10:23:40;15.05;;;12.98;;
52574;SDS011;38468;48.114;-1.684;2022-12-10T10:25:45;17.70;;;12.98;;
52574;SDS011;38468;48.114;-1.684;2022-12-10T10:27:49;20.05;;;13.82;;
52574;SDS011;38468;48.114;-1.684;2022-12-10T10:29:51;16.02;;;13.35;;
52574;SDS011;38468;48.114;-1.684;2022-12-10T10:34:19;14.18;;;12.68;;
52574;SDS011;38468;48.114;-1.684;2022-12-10T10:36:29;19.88;;;13.75;;
52574;SDS011;38468;48.114;-1.684;2022-12-10T10:38:35;17.65;;;13.70;;
52574;SDS011;38468;48.114;-1.684;2022-12-10T10:42:41;15.30;;;13.60;;
52574;SDS011;38468;48.114;-1.684;2022-12-10T10:44:43;19.23;;;16.88;;
52574;SDS011;38468;48.114;-1.684;2022-12-10T10:46:44;19.40;;;15.70;;
52574;SDS011;38468;48.114;-1.684;2022-12-10T10:48:47;22.75;;;17.67;;
52574;SDS011;38468;48.114;-1.684;2022-12-10T10:50:52;21.17;;;15.75;;
52574;SDS011;38468;48.114;-1.684;2022-12-10T10:52:56;23.30;;;18.00;;
52574;SDS011;38468;48.114;-1.684;2022-12-10T10:54:57;28.92;;;20.73;;
52574;SDS011;38468;48.114;-1.684;2022-12-10T10:56:57;24.13;;;20.10;;
52574;SDS011;38468;48.114;-1.684;2022-12-10T10:59:02;22.77;;;17.85;;
52574;SDS011;38468;48.114;-1.684;2022-12-10T11:01:17;19.40;;;16.33;;
52574;SDS011;38468;48.114;-1.684;2022-12-10T11:03:19;20.33;;;15.13;;
52574;SDS011;38468;48.114;-1.684;2022-12-10T11:05:21;23.20;;;17.40;;
52574;SDS011;38468;48.114;-1.684;2022-12-10T11:09:35;13.90;;;12.15;;
52574;SDS011;38468;48.114;-1.684;2022-12-10T11:11:39;17.55;;;13.55;;
52574;SDS011;38468;48.114;-1.684;2022-12-10T11:13:40;21.83;;;15.85;;
52574;SDS011;38468;48.114;-1.684;2022-12-10T11:15:41;20.85;;;14.98;;
52574;SDS011;38468;48.114;-1.684;2022-12-10T11:17:46;21.55;;;16.40;;
52574;SDS011;38468;48.114;-1.684;2022-12-10T11:19:56;20.38;;;15.20;;
52574;SDS011;38468;48.114;-1.684;2022-12-10T11:22:16;21.05;;;15.80;;
52574;SDS011;38468;48.114;-1.684;2022-12-10T11:24:20;21.83;;;15.70;;
52574;SDS011;38468;48.114;-1.684;2022-12-10T11:29:05;23.42;;;15.50;;
52574;SDS011;38468;48.114;-1.684;2022-12-10T11:31:32;19.35;;;14.48;;
52574;SDS011;38468;48.114;-1.684;2022-12-10T11:49:47;17.27;;;14.07;;
52574;SDS011;38468;48.114;-1.684;2022-12-10T11:58:57;14.93;;;12.35;;
52574;SDS011;38468;48.114;-1.684;2022-12-10T12:17:26;15.60;;;12.88;;
52574;SDS011;38468;48.114;-1.684;2022-12-10T12:19:33;17.65;;;13.15;;
52574;SDS011;38468;48.114;-1.684;2022-12-10T12:21:40;16.80;;;14.68;;
52574;SDS011;38468;48.114;-1.684;2022-12-10T12:23:46;15.80;;;13.38;;
52574;SDS011;38468;48.114;-1.684;2022-12-10T12:25:54;17.65;;;14.48;;
52574;SDS011;38468;48.114;-1.684;2022-12-10T12:30:15;15.95;;;13.98;;
52574;SDS011;38468;48.114;-1.684;2022-12-10T12:32:24;17.90;;;13.18;;
52574;SDS011;38468;48.114;-1.684;2022-12-10T12:37:02;15.07;;;13.20;;
52574;SDS011;38468;48.114;-1.684;2022-12-10T12:45:39;16.73;;;13.60;;
52574;SDS011;38468;48.114;-1.684;2022-12-10T12:47:48;22.75;;;14.20;;
52574;SDS011;38468;48.114;-1.684;2022-12-10T12:52:52;14.23;;;12.85;;
52574;SDS011;38468;48.114;-1.684;2022-12-10T12:54:57;12.85;;;11.23;;
52574;SDS011;38468;48.114;-1.684;2022-12-10T13:01:53;12.55;;;11.35;;
52574;SDS011;38468;48.114;-1.684;2022-12-10T13:04:18;17.23;;;12.68;;
52574;SDS011;38468;48.114;-1.684;2022-12-10T13:06:26;18.33;;;12.63;;
52574;SDS011;38468;48.114;-1.684;2022-12-10T13:08:29;13.85;;;11.55;;
52574;SDS011;38468;48.114;-1.684;2022-12-10T13:10:42;11.50;;;10.20;;
52574;SDS011;38468;48.114;-1.684;2022-12-10T13:13:15;12.63;;;10.60;;
52574;SDS011;38468;48.114;-1.684;2022-12-10T13:15:38;11.98;;;10.70;;
52574;SDS011;38468;48.114;-1.684;2022-12-10T13:17:39;10.27;;;9.27;;
52574;SDS011;38468;48.114;-1.684;2022-12-10T13:22:42;12.15;;;10.68;;
52574;SDS011;38468;48.114;-1.684;2022-12-10T13:25:10;9.95;;;8.82;;
52574;SDS011;38468;48.114;-1.684;2022-12-10T13:31:19;9.57;;;7.18;;
52574;SDS011;38468;48.114;-1.684;2022-12-10T13:35:58;5.97;;;5.45;;
52574;SDS011;38468;48.114;-1.684;2022-12-10T13:38:04;7.00;;;6.30;;
52574;SDS011;38468;48.114;-1.684;2022-12-10T13:42:31;7.90;;;7.10;;
52574;SDS011;38468;48.114;-1.684;2022-12-10T13:45:03;8.70;;;7.47;;
52574;SDS011;38468;48.114;-1.684;2022-12-10T13:50:13;8.43;;;6.78;;
52574;SDS011;38468;48.114;-1.684;2022-12-10T13:52:07;8.60;;;6.57;;
52574;SDS011;38468;48.114;-1.684;2022-12-10T13:54:39;7.00;;;6.30;;
52574;SDS011;38468;48.114;-1.684;2022-12-10T13:59:34;9.38;;;7.55;;
52574;SDS011;38468;48.114;-1.684;2022-12-10T14:02:14;12.00;;;9.02;;
52574;SDS011;38468;48.114;-1.684;2022-12-10T14:04:26;12.27;;;9.02;;
52574;SDS011;38468;48.114;-1.684;2022-12-10T14:06:50;10.88;;;8.82;;